Time;durP1;ratioP1;P1;durP2;ratioP2;P2;SDS_P1;SDS_P2;PMS_P1;PMS_P2;Temp;Humidity;BMP_temperature;BMP_pressure;BME280_temperature;BME280_humidity;BME280_pressure;Samples;Min_cycle;Max_cycle;Signal;HPM_P1;HPM_P2
2023/08/06 00:02:38;;;;;;;;;;;;;;;18.60;61.29;96725.53;6151505;28;20332;-71
2023/08/06 00:05:43;;;;;;;;;;;;;;;18.57;61.19;96729.34;6151531;28;19934;-71
2023/08/06 00:08:46;;;;;;;;;;;;;;;18.55;61.18;96722.50;6151952;28;19974;-71
2023/08/06 00:11:47;;;;;;;;;;;;;;;18.52;61.16;96714.81;6133948;28;20345;-70
2023/08/06 00:14:53;;;;;;;;;;;;;;;18.51;61.03;96713.13;6151300;28;19926;-71
2023/08/06 00:17:56;;;;;;;;;;;;;;;18.51;61.25;96713.13;6150639;28;19927;-71
2023/08/06 00:20:59;;;;;;;;;;;;;;;18.48;61.24;96708.94;6151252;28;20400;-70
2023/08/06 00:24:01;;;;;;;;;;;;;;;18.47;61.34;96711.75;6150874;28;19934;-71
2023/08/06 00:27:04;;;;;;;;;;;;;;;18.44;61.45;96714.72;6150500;28;19919;-71
2023/08/06 00:30:05;;;;;;;;;;;;;;;18.41;61.53;96710.53;6150986;28;19934;-71
2023/08/06 00:33:09;;;;;;;;;;;;;;;18.38;61.42;96714.34;6150780;28;20028;-71
2023/08/06 00:36:13;;;;;;;;;;;;;;;18.37;61.82;96715.34;6150740;28;19931;-71
2023/08/06 00:39:16;;;;;;;;;;;;;;;18.38;61.32;96718.84;6150873;28;19934;-71
2023/08/06 00:42:20;;;;;;;;;;;;;;;18.40;61.40;96717.69;6150374;28;20025;-70
2023/08/06 00:45:22;;;;;;;;;;;;;;;18.44;61.43;96726.22;6149970;28;19933;-71
2023/08/06 00:48:25;;;;;;;;;;;;;;;18.37;61.91;96712.69;6150490;28;19926;-70
2023/08/06 00:51:27;;;;;;;;;;;;;;;18.46;61.90;96726.09;6149806;28;20313;-71
2023/08/06 00:54:31;;;;;;;;;;;;;;;18.51;61.77;96723.78;6149848;28;19934;-71
2023/08/06 00:57:34;;;;;;;;;;;;;;;18.57;62.30;96729.34;6149203;28;19927;-71
2023/08/06 01:00:40;;;;;;;;;;;;;;;18.64;62.09;96729.56;6149136;28;19926;-71
2023/08/06 01:03:41;;;;;;;;;;;;;;;18.66;62.03;96722.25;6148793;28;19922;-70
2023/08/06 01:06:47;;;;;;;;;;;;;;;18.71;61.38;96725.31;6149948;28;19926;-70
2023/08/06 01:09:57;;;;;;;;;;;;;;;18.75;61.37;96716.03;6150156;28;19990;-71
2023/08/06 01:13:14;;;;;;;;;;;;;;;18.78;60.99;96718.38;6149992;28;19923;-71
2023/08/06 01:16:18;;;;;;;;;;;;;;;18.83;60.95;96718.75;6150020;28;19946;-71
2023/08/06 01:19:20;;;;;;;;;;;;;;;18.87;60.94;96713.94;6149163;28;19953;-71
2023/08/06 01:22:24;;;;;;;;;;;;;;;18.96;60.58;96714.84;6149750;28;19927;-71
2023/08/06 01:25:30;;;;;;;;;;;;;;;19.05;60.64;96717.44;6149799;28;19937;-71
2023/08/06 01:28:31;;;;;;;;;;;;;;;19.13;60.44;96710.47;6147981;28;20024;-71
2023/08/06 01:31:37;;;;;;;;;;;;;;;19.17;60.56;96710.00;6149096;28;19922;-72
2023/08/06 01:34:40;;;;;;;;;;;;;;;19.21;60.33;96715.84;6148637;28;19934;-72
2023/08/06 01:37:42;;;;;;;;;;;;;;;19.25;60.52;96715.41;6149086;28;19934;-72
2023/08/06 01:40:46;;;;;;;;;;;;;;;19.31;60.08;96710.44;6147785;28;19930;-71
2023/08/06 01:43:47;;;;;;;;;;;;;;;19.36;60.17;96714.28;6149389;28;19933;-70
2023/08/06 01:46:51;;;;;;;;;;;;;;;19.45;60.50;96712.50;6149386;28;19926;-72
2023/08/06 01:49:54;;;;;;;;;;;;;;;19.56;60.14;96717.56;6148276;28;20089;-71
2023/08/06 01:52:56;;;;;;;;;;;;;;;19.71;59.57;96712.50;6148065;28;19942;-71
2023/08/06 01:55:59;;;;;;;;;;;;;;;19.83;60.06;96710.38;6149275;28;20396;-70
2023/08/06 01:59:04;;;;;;;;;;;;;;;19.90;59.51;96706.03;6149128;28;19926;-71
2023/08/06 02:02:05;;;;;;;;;;;;;;;20.01;58.78;96707.59;6149020;28;20003;-71
2023/08/06 02:05:06;;;;;;;;;;;;;;;20.07;59.22;96705.13;6148890;28;20064;-72
2023/08/06 02:08:10;;;;;;;;;;;;;;;20.15;59.25;96699.75;6148849;28;19926;-71
2023/08/06 02:11:15;;;;;;;;;;;;;;;20.21;59.28;96702.78;6148850;28;19926;-71
2023/08/06 02:14:16;;;;;;;;;;;;;;;20.29;59.17;96702.81;6146685;28;19933;-70
2023/08/06 02:17:18;;;;;;;;;;;;;;;20.41;58.64;96706.84;6148612;28;20217;-71
2023/08/06 02:20:22;;;;;;;;;;;;;;;20.57;58.41;96708.72;6148751;28;19926;-71
2023/08/06 02:23:23;;;;;;;;;;;;;;;20.76;58.45;96712.91;6148291;28;19927;-70
2023/08/06 02:26:28;;;;;;;;;;;;;;;20.91;57.85;96705.88;6148824;28;19926;-70
2023/08/06 02:29:32;;;;;;;;;;;;;;;20.97;57.56;96707.06;6148683;28;20400;-71
2023/08/06 02:32:35;;;;;;;;;;;;;;;20.97;57.46;96702.53;6148067;28;20419;-70
2023/08/06 02:35:38;;;;;;;;;;;;;;;20.95;58.04;96701.88;6148058;28;20528;-72
2023/08/06 02:38:40;;;;;;;;;;;;;;;20.99;57.74;96703.22;6148387;28;19926;-72
2023/08/06 02:41:41;;;;;;;;;;;;;;;21.05;57.18;96702.53;6148356;28;20488;-71
2023/08/06 02:44:47;;;;;;;;;;;;;;;21.11;57.71;96708.22;6147158;28;19926;-71
2023/08/06 02:47:51;;;;;;;;;;;;;;;21.12;57.29;96717.91;6148210;28;19927;-71
2023/08/06 02:50:56;;;;;;;;;;;;;;;21.16;57.38;96719.25;6146596;28;20085;-71
2023/08/06 02:54:02;;;;;;;;;;;;;;;21.21;57.63;96717.72;6148324;28;19927;-70
2023/08/06 02:57:05;;;;;;;;;;;;;;;21.33;56.79;96720.06;6148247;28;19927;-71
2023/08/06 03:00:07;;;;;;;;;;;;;;;21.42;57.37;96725.25;6148034;28;19963;-72
2023/08/06 03:03:12;;;;;;;;;;;;;;;21.57;56.79;96722.72;6150790;28;19922;-71
2023/08/06 03:06:14;;;;;;;;;;;;;;;21.75;56.46;96714.44;6151280;28;19926;-70
2023/08/06 03:09:17;;;;;;;;;;;;;;;22.02;56.36;96704.25;6152787;28;20025;-72
2023/08/06 03:12:21;;;;;;;;;;;;;;;22.36;55.81;96707.47;6152677;28;20394;-72
2023/08/06 03:15:24;;;;;;;;;;;;;;;22.79;54.56;96697.09;6152636;28;19930;-71
2023/08/06 03:18:30;;;;;;;;;;;;;;;23.23;54.08;96707.13;6152736;28;19927;-71
2023/08/06 03:21:34;;;;;;;;;;;;;;;23.54;53.54;96698.06;6152637;28;19927;-71
2023/08/06 03:24:37;;;;;;;;;;;;;;;23.76;53.05;96704.41;6152530;28;19973;-71
2023/08/06 03:27:38;;;;;;;;;;;;;;;23.91;53.30;96704.38;6150473;28;20412;-71
2023/08/06 03:30:42;;;;;;;;;;;;;;;24.00;52.96;96700.56;6151944;28;19933;-71
2023/08/06 03:33:45;;;;;;;;;;;;;;;24.03;53.21;96702.88;6152182;28;19926;-72
2023/08/06 03:36:46;;;;;;;;;;;;;;;23.93;53.21;96688.91;6150925;28;20404;-71
2023/08/06 03:39:51;;;;;;;;;;;;;;;23.69;53.46;96696.22;6152176;28;20015;-71
2023/08/06 03:42:55;;;;;;;;;;;;;;;23.44;54.11;96695.69;6150466;28;20303;-72
2023/08/06 03:45:58;;;;;;;;;;;;;;;23.24;54.71;96695.38;6151283;28;19933;-72
2023/08/06 03:49:02;;;;;;;;;;;;;;;23.05;55.02;96685.16;6151956;28;19942;-72
2023/08/06 03:52:03;;;;;;;;;;;;;;;22.94;55.29;96682.88;6149847;28;19927;-71
2023/08/06 03:55:07;;;;;;;;;;;;;;;22.96;55.25;96678.22;6151649;28;19926;-71
2023/08/06 03:58:09;;;;;;;;;;;;;;;23.02;55.13;96669.44;6151404;28;20073;-71
2023/08/06 04:01:10;;;;;;;;;;;;;;;23.25;54.84;96674.72;6149919;28;19926;-72
2023/08/06 04:04:14;;;;;;;;;;;;;;;23.36;54.69;96671.59;6151743;28;19922;-71
2023/08/06 04:07:17;;;;;;;;;;;;;;;23.46;54.18;96677.50;6151346;28;19990;-72
2023/08/06 04:10:21;;;;;;;;;;;;;;;23.55;54.07;96670.19;6151494;28;19926;-72
2023/08/06 04:13:24;;;;;;;;;;;;;;;23.69;53.71;96666.69;6151031;28;20298;-72
2023/08/06 04:16:26;;;;;;;;;;;;;;;23.88;53.22;96670.66;6150708;28;19973;-71
2023/08/06 04:19:30;;;;;;;;;;;;;;;24.28;52.89;96657.66;6150728;28;19927;-71
2023/08/06 04:22:33;;;;;;;;;;;;;;;24.71;51.08;96660.38;6149706;28;20021;-72
2023/08/06 04:25:34;;;;;;;;;;;;;;;25.08;49.72;96661.94;6150322;28;19933;-72
2023/08/06 04:28:35;;;;;;;;;;;;;;;25.37;49.39;96654.72;6150349;28;20413;-72
2023/08/06 04:31:39;;;;;;;;;;;;;;;25.60;48.68;96656.28;6151154;28;19926;-72
2023/08/06 04:34:40;;;;;;;;;;;;;;;25.91;47.82;96651.28;6150724;28;20021;-72
2023/08/06 04:37:43;;;;;;;;;;;;;;;26.20;46.87;96654.69;6150596;28;20419;-72
2023/08/06 04:40:48;;;;;;;;;;;;;;;26.36;46.29;96648.94;6150766;28;19927;-72
2023/08/06 04:43:50;;;;;;;;;;;;;;;26.55;45.79;96647.34;6150876;28;20496;-72
2023/08/06 04:46:51;;;;;;;;;;;;;;;26.72;45.60;96642.34;6149099;29;20347;-71
2023/08/06 04:49:58;;;;;;;;;;;;;;;27.66;43.89;96646.63;6149489;28;19926;-72
2023/08/06 04:52:59;;;;;;;;;;;;;;;30.90;38.58;96647.66;6150025;28;20384;-71
2023/08/06 04:56:02;;;;;;;;;;;;;;;34.39;33.50;96657.31;6149987;28;19937;-72
2023/08/06 04:59:03;;;;;;;;;;;;;;;37.65;29.43;96661.09;6149474;28;19931;-72
2023/08/06 05:02:06;;;;;;;;;;;;;;;40.44;27.04;96658.50;6150196;28;19926;-72
2023/08/06 05:05:08;;;;;;;;;;;;;;;42.69;24.70;96668.34;6149430;28;19934;-72
2023/08/06 05:08:14;;;;;;;;;;;;;;;44.35;22.21;96670.22;6149611;28;20013;-72
2023/08/06 05:11:21;;;;;;;;;;;;;;;45.89;22.30;96664.13;6150039;28;19927;-72
2023/08/06 05:14:22;;;;;;;;;;;;;;;47.39;20.12;96676.72;6148178;28;19926;-71
2023/08/06 05:17:25;;;;;;;;;;;;;;;48.46;19.78;96663.63;6149236;28;19938;-72
2023/08/06 05:20:35;;;;;;;;;;;;;;;49.04;19.42;96665.44;6148939;28;20392;-73
2023/08/06 05:23:38;;;;;;;;;;;;;;;49.67;19.20;96662.81;6149411;28;19927;-72
2023/08/06 05:26:46;;;;;;;;;;;;;;;50.23;16.92;96651.44;6149137;28;20356;-72
2023/08/06 05:29:49;;;;;;;;;;;;;;;50.70;14.93;96658.16;6149185;28;20055;-73
2023/08/06 05:32:53;;;;;;;;;;;;;;;50.83;15.82;96647.63;6149686;28;20364;-73
2023/08/06 05:35:56;;;;;;;;;;;;;;;51.11;14.47;96653.84;6149784;29;20440;-73
2023/08/06 05:39:03;;;;;;;;;;;;;;;50.94;15.89;96643.06;6148935;28;20459;-73
2023/08/06 05:42:06;;;;;;;;;;;;;;;51.59;14.20;96634.75;6149628;28;19926;-72
2023/08/06 05:45:11;;;;;;;;;;;;;;;52.27;13.87;96623.88;6149342;28;19926;-72
2023/08/06 05:48:13;;;;;;;;;;;;;;;52.64;13.57;96626.84;6148827;28;20379;-72
2023/08/06 05:51:17;;;;;;;;;;;;;;;53.73;12.67;96619.28;6149087;28;19926;-72
2023/08/06 05:54:19;;;;;;;;;;;;;;;55.07;10.66;96621.81;6147898;28;20025;-72
2023/08/06 05:57:23;;;;;;;;;;;;;;;55.34;12.76;96620.25;6148911;28;19926;-73
2023/08/06 06:00:29;;;;;;;;;;;;;;;55.45;11.92;96606.19;6149138;28;20352;-73
2023/08/06 06:03:34;;;;;;;;;;;;;;;56.17;10.81;96604.22;6148734;28;19937;-73
2023/08/06 06:06:39;;;;;;;;;;;;;;;56.19;11.50;96610.25;6148636;28;19927;-73
2023/08/06 06:09:42;;;;;;;;;;;;;;;53.87;11.56;96596.09;6148519;28;19926;-71
2023/08/06 06:12:46;;;;;;;;;;;;;;;53.15;12.25;96588.94;6148844;28;19926;-72
2023/08/06 06:15:49;;;;;;;;;;;;;;;52.47;12.24;96577.66;6148646;29;20344;-72
2023/08/06 06:18:52;;;;;;;;;;;;;;;51.10;12.30;96567.31;6149029;28;19927;-72
2023/08/06 06:21:58;;;;;;;;;;;;;;;48.29;14.36;96541.13;6148550;28;20013;-73
2023/08/06 06:24:59;;;;;;;;;;;;;;;44.80;16.27;96523.69;6148485;28;19949;-73
2023/08/06 06:28:03;;;;;;;;;;;;;;;43.70;17.50;96511.81;6147223;28;20045;-73
2023/08/06 06:31:05;;;;;;;;;;;;;;;44.55;16.89;96519.78;6148021;28;20063;-74
2023/08/06 06:34:10;;;;;;;;;;;;;;;43.82;17.39;96508.41;6147378;28;19927;-73
2023/08/06 06:37:14;;;;;;;;;;;;;;;43.23;17.71;96492.09;6147903;28;20377;-73
2023/08/06 06:40:18;;;;;;;;;;;;;;;41.73;18.95;96495.16;6148565;28;20381;-73
2023/08/06 06:43:21;;;;;;;;;;;;;;;41.79;19.19;96493.09;6148141;28;20553;-73
2023/08/06 06:46:25;;;;;;;;;;;;;;;42.90;18.36;96499.06;6146532;28;19926;-73
2023/08/06 06:49:26;;;;;;;;;;;;;;;40.66;20.22;96499.94;6147810;28;20316;-72
2023/08/06 06:52:32;;;;;;;;;;;;;;;38.11;22.92;96490.69;6148119;28;20016;-73
2023/08/06 06:55:35;;;;;;;;;;;;;;;35.53;25.67;96485.69;6146328;28;19933;-73
2023/08/06 06:58:41;;;;;;;;;;;;;;;34.03;28.33;96491.41;6147149;28;20308;-74
2023/08/06 07:01:45;;;;;;;;;;;;;;;32.35;29.98;96485.34;6147989;28;20021;-73
2023/08/06 07:04:51;;;;;;;;;;;;;;;31.36;32.44;96488.38;6147899;28;19957;-73
2023/08/06 07:07:55;;;;;;;;;;;;;;;31.08;33.64;96477.19;6147010;28;20369;-74
2023/08/06 07:10:59;;;;;;;;;;;;;;;31.52;32.96;96476.75;6148050;28;20029;-74
2023/08/06 07:14:01;;;;;;;;;;;;;;;31.21;34.56;96473.38;6148128;29;19997;-73
2023/08/06 07:17:04;;;;;;;;;;;;;;;30.86;35.25;96476.16;6148100;28;20393;-74
2023/08/06 07:20:08;;;;;;;;;;;;;;;30.31;35.74;96460.19;6148110;28;19926;-73
2023/08/06 07:23:11;;;;;;;;;;;;;;;29.98;35.69;96454.22;6148017;28;19926;-72
2023/08/06 07:26:15;;;;;;;;;;;;;;;29.99;35.26;96444.19;6147841;28;19927;-74
2023/08/06 07:29:20;;;;;;;;;;;;;;;30.19;34.61;96441.97;6146855;28;19927;-73
2023/08/06 07:32:24;;;;;;;;;;;;;;;32.11;32.82;96444.66;6147653;28;19922;-72
2023/08/06 07:35:28;;;;;;;;;;;;;;;37.32;26.66;96454.00;6146475;28;19926;-73
2023/08/06 07:38:31;;;;;;;;;;;;;;;42.15;21.56;96462.69;6147207;28;20308;-72
2023/08/06 07:41:33;;;;;;;;;;;;;;;44.04;19.96;96465.91;6147664;29;19937;-72
2023/08/06 07:44:36;;;;;;;;;;;;;;;44.80;19.17;96467.38;6147161;28;19933;-72
2023/08/06 07:47:41;;;;;;;;;;;;;;;45.74;18.88;96461.75;6147866;28;19926;-73
2023/08/06 07:50:50;;;;;;;;;;;;;;;44.65;19.41;96445.69;6150432;28;19926;-73
2023/08/06 07:53:54;;;;;;;;;;;;;;;44.17;20.19;96435.59;6152023;28;19941;-73
2023/08/06 07:56:58;;;;;;;;;;;;;;;43.57;20.29;96435.22;6134584;28;19926;-72
2023/08/06 08:00:01;;;;;;;;;;;;;;;41.54;22.64;96425.41;6151654;28;19957;-73
2023/08/06 08:03:04;;;;;;;;;;;;;;;39.49;24.87;96420.59;6134550;29;19931;-73
2023/08/06 08:06:07;;;;;;;;;;;;;;;38.16;26.30;96419.19;6151212;28;20028;-74
2023/08/06 08:09:09;;;;;;;;;;;;;;;37.00;27.32;96403.03;6151186;28;19964;-74
2023/08/06 08:12:13;;;;;;;;;;;;;;;36.85;26.79;96401.19;6151202;28;20398;-73
2023/08/06 08:15:16;;;;;;;;;;;;;;;38.82;25.17;96399.34;6134607;29;19926;-73
2023/08/06 08:18:19;;;;;;;;;;;;;;;37.97;25.51;96392.44;6151275;28;19927;-72
2023/08/06 08:21:23;;;;;;;;;;;;;;;36.78;26.95;96400.66;6151106;28;19930;-73
2023/08/06 08:24:27;;;;;;;;;;;;;;;35.81;28.01;96392.44;6151176;28;20002;-72
2023/08/06 08:27:31;;;;;;;;;;;;;;;35.33;29.05;96375.38;6150917;28;20025;-72
2023/08/06 08:30:34;;;;;;;;;;;;;;;37.89;25.99;96368.28;6150664;28;20424;-73
2023/08/06 08:33:37;;;;;;;;;;;;;;;41.02;23.10;96382.25;6133889;29;19930;-73
2023/08/06 08:36:40;;;;;;;;;;;;;;;40.55;23.65;96378.72;6151235;28;19927;-73
2023/08/06 08:39:43;;;;;;;;;;;;;;;38.06;26.48;96358.84;6150593;28;19927;-73
2023/08/06 08:42:46;;;;;;;;;;;;;;;36.54;27.55;96362.88;6151056;28;20024;-73
2023/08/06 08:45:50;;;;;;;;;;;;;;;35.87;28.43;96358.50;6150371;28;20021;-74
2023/08/06 08:48:54;;;;;;;;;;;;;;;37.09;26.72;96349.28;6133462;29;19934;-74
2023/08/06 08:51:59;;;;;;;;;;;;;;;40.54;22.57;96360.56;6140217;28;19965;-73
2023/08/06 08:55:02;;;;;;;;;;;;;;;43.27;19.92;96354.63;6109344;29;19927;-72
2023/08/06 08:58:05;;;;;;;;;;;;;;;44.54;18.69;96360.00;6126589;29;19927;-72
2023/08/06 09:01:08;;;;;;;;;;;;;;;42.23;21.04;96340.31;6126618;29;19965;-72
2023/08/06 09:04:12;;;;;;;;;;;;;;;39.60;23.39;96336.72;6126865;29;19926;-71
2023/08/06 09:07:17;;;;;;;;;;;;;;;37.41;26.00;96315.91;6125947;29;19930;-73
2023/08/06 09:10:23;;;;;;;;;;;;;;;35.77;27.91;96303.78;6126486;29;20029;-73
2023/08/06 09:13:26;;;;;;;;;;;;;;;35.91;28.09;96304.88;6093753;29;19998;-74
2023/08/06 09:16:29;;;;;;;;;;;;;;;35.68;28.35;96301.59;6126012;29;20026;-73
2023/08/06 09:19:33;;;;;;;;;;;;;;;35.43;28.24;96293.34;6126051;29;19970;-73
2023/08/06 09:22:36;;;;;;;;;;;;;;;35.03;28.97;96289.41;6125757;29;20393;-74
2023/08/06 09:25:40;;;;;;;;;;;;;;;34.62;29.38;96278.31;6125840;29;19927;-72
2023/08/06 09:28:44;;;;;;;;;;;;;;;34.60;29.82;96280.53;6125504;29;20026;-74
2023/08/06 09:31:51;;;;;;;;;;;;;;;37.27;26.46;96273.75;6125653;29;20428;-72
2023/08/06 09:34:57;;;;;;;;;;;;;;;41.15;22.69;96280.47;6125598;29;20007;-74
2023/08/06 09:38:09;;;;;;;;;;;;;;;44.58;19.15;96286.03;6108254;29;20532;-72
2023/08/06 09:41:25;;;;;;;;;;;;;;;46.49;17.83;96283.75;6108124;29;20325;-72
2023/08/06 09:44:29;;;;;;;;;;;;;;;46.76;15.16;96282.25;6125378;29;19927;-73
2023/08/06 09:47:33;;;;;;;;;;;;;;;46.56;15.58;96288.72;6125369;29;19965;-71
2023/08/06 09:50:38;;;;;;;;;;;;;;;46.06;15.76;96303.69;6108122;29;20017;-72
2023/08/06 09:53:42;;;;;;;;;;;;;;;44.36;16.83;96302.94;6125202;29;20021;-73
2023/08/06 09:56:46;;;;;;;;;;;;;;;40.79;19.52;96312.34;6125349;29;19942;-73
2023/08/06 09:59:51;;;;;;;;;;;;;;;39.16;21.37;96298.56;6125046;29;19981;-73
2023/08/06 10:02:55;;;;;;;;;;;;;;;40.68;20.12;96312.88;6124832;29;19930;-73
2023/08/06 10:06:02;;;;;;;;;;;;;;;41.87;19.10;96308.06;6124861;29;19958;-74
2023/08/06 10:09:05;;;;;;;;;;;;;;;40.84;19.78;96314.22;6124481;29;19926;-74
2023/08/06 10:12:08;;;;;;;;;;;;;;;38.48;22.39;96305.97;6107491;29;19926;-73
2023/08/06 10:15:12;;;;;;;;;;;;;;;36.58;23.89;96303.69;6124898;29;20009;-73
2023/08/06 10:18:20;;;;;;;;;;;;;;;35.08;25.66;96303.94;6124674;29;19941;-73
2023/08/06 10:21:27;;;;;;;;;;;;;;;33.82;27.09;96297.47;6124811;29;19927;-73
2023/08/06 10:24:45;;;;;;;;;;;;;;;34.58;26.31;96296.34;6124766;29;20460;-72
2023/08/06 10:27:49;;;;;;;;;;;;;;;36.40;24.06;96315.22;6124547;29;19927;-72
2023/08/06 10:30:52;;;;;;;;;;;;;;;34.96;25.53;96305.22;6124804;29;19927;-74
2023/08/06 10:33:56;;;;;;;;;;;;;;;34.36;26.43;96321.06;6124437;29;19927;-72
2023/08/06 10:37:01;;;;;;;;;;;;;;;35.36;25.34;96320.13;6124567;29;20407;-73
2023/08/06 10:40:06;;;;;;;;;;;;;;;34.21;26.90;96321.78;6124475;29;19970;-72
2023/08/06 10:43:24;;;;;;;;;;;;;;;33.07;28.44;96296.50;6107482;29;19931;-73
2023/08/06 10:46:28;;;;;;;;;;;;;;;34.08;27.06;96311.31;6124969;29;19926;-72
2023/08/06 10:49:31;;;;;;;;;;;;;;;36.68;24.15;96318.44;6124717;29;19926;-72
2023/08/06 10:52:35;;;;;;;;;;;;;;;38.64;22.16;96314.84;6121536;29;19926;-73
2023/08/06 10:55:38;;;;;;;;;;;;;;;39.43;21.71;96320.75;6131342;28;19926;-72
2023/08/06 10:58:42;;;;;;;;;;;;;;;40.09;21.04;96305.13;6148279;28;19981;-73
2023/08/06 11:01:46;;;;;;;;;;;;;;;39.37;21.94;96315.63;6147762;28;19944;-72
2023/08/06 11:04:50;;;;;;;;;;;;;;;38.26;22.84;96309.19;6148083;28;20400;-73
2023/08/06 11:07:54;;;;;;;;;;;;;;;37.33;22.98;96307.47;6148000;28;19926;-73
2023/08/06 11:11:07;;;;;;;;;;;;;;;36.46;23.41;96294.91;6147586;28;19989;-73
2023/08/06 11:14:15;;;;;;;;;;;;;;;37.19;22.41;96302.59;6130350;29;20033;-73
2023/08/06 11:17:17;;;;;;;;;;;;;;;37.74;21.25;96305.28;6147537;28;19964;-73
2023/08/06 11:20:24;;;;;;;;;;;;;;;38.45;20.72;96297.50;6147728;28;19926;-73
2023/08/06 11:23:28;;;;;;;;;;;;;;;38.53;20.19;96291.34;6132142;28;19997;-72
2023/08/06 11:26:32;;;;;;;;;;;;;;;38.09;20.37;96292.34;6152208;28;20296;-72
2023/08/06 11:29:37;;;;;;;;;;;;;;;37.90;20.65;96289.47;6152388;28;19973;-72
2023/08/06 11:32:48;;;;;;;;;;;;;;;37.55;21.56;96287.84;6152167;28;19956;-72
2023/08/06 11:35:52;;;;;;;;;;;;;;;36.65;22.73;96303.38;6135408;28;19927;-72
2023/08/06 11:38:56;;;;;;;;;;;;;;;35.59;23.90;96297.75;6134859;28;19931;-73
2023/08/06 11:42:02;;;;;;;;;;;;;;;34.52;26.08;96283.72;6152290;28;20029;-73
2023/08/06 11:45:05;;;;;;;;;;;;;;;33.35;27.44;96281.78;6135296;29;19942;-73
2023/08/06 11:48:09;;;;;;;;;;;;;;;32.37;28.91;96270.81;6152046;28;19926;-73
2023/08/06 11:51:15;;;;;;;;;;;;;;;31.79;29.53;96270.25;6131087;29;19926;-72
2023/08/06 11:54:30;;;;;;;;;;;;;;;31.33;30.80;96273.00;6128004;29;19934;-72
2023/08/06 11:57:36;;;;;;;;;;;;;;;30.77;31.65;96262.97;6127814;29;20458;-74
2023/08/06 12:00:40;;;;;;;;;;;;;;;30.37;32.24;96261.91;6110420;29;20291;-73
2023/08/06 12:03:43;;;;;;;;;;;;;;;30.07;32.82;96272.09;6127718;29;20313;-73
2023/08/06 12:06:46;;;;;;;;;;;;;;;29.76;32.72;96279.53;6127537;29;20001;-72
2023/08/06 12:09:49;;;;;;;;;;;;;;;29.78;33.38;96291.00;6127553;29;19926;-73
2023/08/06 12:12:53;;;;;;;;;;;;;;;29.90;34.23;96289.09;6127557;29;20320;-73
2023/08/06 12:15:57;;;;;;;;;;;;;;;29.39;35.17;96274.28;6109762;29;20008;-73
2023/08/06 12:19:00;;;;;;;;;;;;;;;28.95;35.92;96272.84;6127265;29;19935;-73
2023/08/06 12:22:03;;;;;;;;;;;;;;;28.77;36.63;96261.00;6127159;29;19973;-72
2023/08/06 12:25:12;;;;;;;;;;;;;;;28.67;36.89;96265.31;6127255;29;19926;-72
2023/08/06 12:28:15;;;;;;;;;;;;;;;29.17;36.57;96273.16;6127146;29;19931;-73
2023/08/06 12:31:17;;;;;;;;;;;;;;;30.41;34.30;96271.25;6110288;29;19927;-73
2023/08/06 12:34:21;;;;;;;;;;;;;;;31.06;32.81;96280.16;6127179;29;20013;-73
2023/08/06 12:37:25;;;;;;;;;;;;;;;31.47;32.01;96286.31;6109894;29;19933;-73
2023/08/06 12:40:28;;;;;;;;;;;;;;;31.59;31.18;96284.34;6126869;29;20356;-73
2023/08/06 12:43:32;;;;;;;;;;;;;;;31.70;30.50;96283.44;6126989;29;20017;-74
2023/08/06 12:46:34;;;;;;;;;;;;;;;31.44;31.23;96284.09;6126478;29;19990;-73
2023/08/06 12:49:38;;;;;;;;;;;;;;;31.17;30.54;96279.25;6126822;29;19957;-73
2023/08/06 12:52:41;;;;;;;;;;;;;;;30.88;30.17;96278.44;6126553;29;20009;-72
2023/08/06 12:55:45;;;;;;;;;;;;;;;30.48;29.95;96275.72;6126793;29;20033;-73
2023/08/06 12:58:48;;;;;;;;;;;;;;;30.37;29.47;96282.81;6126825;29;19977;-72
2023/08/06 13:01:52;;;;;;;;;;;;;;;29.29;30.70;96290.28;6126576;29;19927;-72
2023/08/06 13:04:55;;;;;;;;;;;;;;;28.71;31.85;96288.16;6126159;29;19938;-73
2023/08/06 13:07:59;;;;;;;;;;;;;;;28.28;32.77;96283.63;6126190;29;20397;-73
2023/08/06 13:11:02;;;;;;;;;;;;;;;28.30;32.87;96278.84;6093439;29;19932;-73
2023/08/06 13:14:06;;;;;;;;;;;;;;;28.32;33.01;96279.44;6126264;29;19926;-73
2023/08/06 13:17:10;;;;;;;;;;;;;;;28.34;33.33;96282.75;6126108;29;20078;-72
2023/08/06 13:20:14;;;;;;;;;;;;;;;28.40;33.19;96284.56;6125992;29;19930;-72
2023/08/06 13:23:18;;;;;;;;;;;;;;;28.15;33.43;96288.16;6126137;29;20025;-73
2023/08/06 13:26:21;;;;;;;;;;;;;;;27.96;33.68;96294.59;6109021;29;20021;-72
2023/08/06 13:29:25;;;;;;;;;;;;;;;27.65;34.38;96290.88;6126063;29;20385;-74
2023/08/06 13:32:29;;;;;;;;;;;;;;;27.39;34.67;96291.13;6125869;29;20079;-73
2023/08/06 13:35:32;;;;;;;;;;;;;;;27.62;34.53;96298.63;6108836;29;19923;-73
2023/08/06 13:38:36;;;;;;;;;;;;;;;27.25;35.12;96307.41;6125779;29;19970;-73
2023/08/06 13:41:40;;;;;;;;;;;;;;;27.06;36.05;96309.19;6125445;29;19961;-73
2023/08/06 13:44:44;;;;;;;;;;;;;;;27.25;35.14;96312.00;6125390;29;20025;-72
2023/08/06 13:47:47;;;;;;;;;;;;;;;27.38;34.01;96305.69;6124502;29;20333;-73
2023/08/06 13:50:50;;;;;;;;;;;;;;;27.50;33.63;96312.84;6125062;29;19931;-72
2023/08/06 13:53:54;;;;;;;;;;;;;;;27.23;34.20;96319.47;6125379;29;19927;-73
2023/08/06 13:56:58;;;;;;;;;;;;;;;27.07;34.33;96310.00;6125357;29;19933;-73
2023/08/06 14:00:01;;;;;;;;;;;;;;;26.97;34.72;96304.25;6092391;29;20038;-72
2023/08/06 14:03:05;;;;;;;;;;;;;;;26.86;35.06;96301.19;6108281;29;19927;-73
2023/08/06 14:06:09;;;;;;;;;;;;;;;26.90;35.29;96306.16;6107726;29;19982;-73
2023/08/06 14:09:18;;;;;;;;;;;;;;;26.95;35.21;96311.72;6124564;29;19982;-72
2023/08/06 14:12:23;;;;;;;;;;;;;;;26.90;35.39;96311.56;6107887;29;19926;-72
2023/08/06 14:15:26;;;;;;;;;;;;;;;26.84;35.32;96315.97;6107795;29;20021;-72
2023/08/06 14:18:32;;;;;;;;;;;;;;;26.85;35.39;96323.81;6123968;29;20219;-71
2023/08/06 14:21:35;;;;;;;;;;;;;;;26.94;35.54;96334.38;6108628;29;20009;-72
2023/08/06 14:24:38;;;;;;;;;;;;;;;27.01;35.22;96327.09;6124951;29;20020;-72
2023/08/06 14:27:42;;;;;;;;;;;;;;;26.89;35.67;96324.22;6107105;29;19930;-72
2023/08/06 14:30:44;;;;;;;;;;;;;;;26.92;35.71;96328.34;6107788;29;20354;-73
2023/08/06 14:33:47;;;;;;;;;;;;;;;26.82;35.98;96326.97;6107408;29;20416;-73
2023/08/06 14:36:50;;;;;;;;;;;;;;;26.74;35.83;96326.38;6124170;29;20328;-72
2023/08/06 14:39:54;;;;;;;;;;;;;;;26.66;35.96;96330.13;6124453;29;19927;-73
2023/08/06 14:42:58;;;;;;;;;;;;;;;26.46;36.15;96327.47;6107106;29;19927;-72
2023/08/06 14:46:02;;;;;;;;;;;;;;;26.36;36.87;96319.84;6107583;29;19922;-72
2023/08/06 14:49:05;;;;;;;;;;;;;;;26.22;36.75;96317.41;6123990;29;19957;-73
2023/08/06 14:52:08;;;;;;;;;;;;;;;26.14;37.21;96326.53;6123934;29;19926;-72
2023/08/06 14:55:12;;;;;;;;;;;;;;;26.04;37.48;96340.44;6106790;29;19927;-72
2023/08/06 14:58:15;;;;;;;;;;;;;;;25.63;38.38;96329.88;6127124;29;19953;-73
2023/08/06 15:01:18;;;;;;;;;;;;;;;25.47;38.77;96337.31;6128915;29;20017;-72
2023/08/06 15:04:23;;;;;;;;;;;;;;;25.46;39.42;96335.69;6111371;29;19945;-73
2023/08/06 15:07:27;;;;;;;;;;;;;;;25.15;39.57;96348.88;6111629;29;20324;-72
2023/08/06 15:10:31;;;;;;;;;;;;;;;24.96;40.52;96339.69;6111749;29;19927;-73
2023/08/06 15:13:34;;;;;;;;;;;;;;;24.82;41.03;96346.88;6111473;29;20002;-72
2023/08/06 15:16:37;;;;;;;;;;;;;;;24.80;41.54;96352.50;6111723;29;19926;-73
2023/08/06 15:19:40;;;;;;;;;;;;;;;24.37;42.52;96355.38;6128351;29;20025;-71
2023/08/06 15:22:44;;;;;;;;;;;;;;;24.19;43.17;96361.25;6128434;29;19931;-73
2023/08/06 15:25:48;;;;;;;;;;;;;;;24.10;43.38;96359.75;6128304;29;19923;-73
2023/08/06 15:28:52;;;;;;;;;;;;;;;23.87;43.88;96356.50;6128454;29;19927;-72
2023/08/06 15:31:55;;;;;;;;;;;;;;;23.82;44.60;96365.13;6128608;29;19930;-73
2023/08/06 15:34:58;;;;;;;;;;;;;;;23.73;45.12;96369.81;6128058;29;20403;-73
2023/08/06 15:38:01;;;;;;;;;;;;;;;23.66;45.48;96371.56;6110666;29;19934;-73
2023/08/06 15:41:05;;;;;;;;;;;;;;;23.56;45.93;96376.47;6110753;29;19927;-72
2023/08/06 15:44:09;;;;;;;;;;;;;;;23.35;46.56;96379.13;6128148;29;19926;-73
2023/08/06 15:47:13;;;;;;;;;;;;;;;23.33;47.19;96383.88;6127912;29;19927;-72
2023/08/06 15:50:16;;;;;;;;;;;;;;;23.07;47.59;96382.56;6110979;29;19926;-72
2023/08/06 15:53:19;;;;;;;;;;;;;;;22.92;48.16;96381.75;6130238;28;19926;-73
2023/08/06 15:56:23;;;;;;;;;;;;;;;22.86;48.70;96386.84;6134159;28;20025;-72
2023/08/06 15:59:27;;;;;;;;;;;;;;;22.76;48.96;96390.84;6151149;28;20029;-72